sensor_id;sensor_type;location;lat;lon;timestamp;P1;durP1;ratioP1;P2;durP2;ratioP2
609;SDS011;292;48.800;9.216;2023-01-08T00:00:00;15.35;;;8.00;;
609;SDS011;292;48.800;9.216;2023-01-08T00:02:28;18.23;;;9.25;;
609;SDS011;292;48.800;9.216;2023-01-08T00:04:56;16.17;;;9.38;;
609;SDS011;292;48.800;9.216;2023-01-08T00:07:24;16.83;;;8.73;;
609;SDS011;292;48.800;9.216;2023-01-08T00:09:51;16.52;;;8.90;;
609;SDS011;292;48.800;9.216;2023-01-08T00:12:19;14.05;;;8.00;;
609;SDS011;292;48.800;9.216;2023-01-08T00:14:46;17.30;;;9.68;;
609;SDS011;292;48.800;9.216;2023-01-08T00:17:13;17.92;;;9.18;;
609;SDS011;292;48.800;9.216;2023-01-08T00:19:40;16.77;;;8.80;;
609;SDS011;292;48.800;9.216;2023-01-08T00:22:08;17.83;;;8.75;;
609;SDS011;292;48.800;9.216;2023-01-08T00:24:35;18.92;;;8.55;;
609;SDS011;292;48.800;9.216;2023-01-08T00:27:03;19.42;;;9.60;;
609;SDS011;292;48.800;9.216;2023-01-08T00:29:30;19.23;;;9.15;;
609;SDS011;292;48.800;9.216;2023-01-08T00:31:57;19.77;;;9.45;;
609;SDS011;292;48.800;9.216;2023-01-08T00:34:29;17.48;;;9.52;;
609;SDS011;292;48.800;9.216;2023-01-08T00:36:56;16.30;;;8.43;;
609;SDS011;292;48.800;9.216;2023-01-08T00:39:24;14.98;;;8.70;;
609;SDS011;292;48.800;9.216;2023-01-08T00:41:51;15.38;;;8.45;;
609;SDS011;292;48.800;9.216;2023-01-08T00:44:18;17.70;;;8.20;;
609;SDS011;292;48.800;9.216;2023-01-08T00:46:45;17.25;;;8.25;;
609;SDS011;292;48.800;9.216;2023-01-08T00:49:12;14.73;;;7.70;;
609;SDS011;292;48.800;9.216;2023-01-08T00:51:39;14.57;;;7.32;;
609;SDS011;292;48.800;9.216;2023-01-08T00:54:07;16.83;;;8.57;;
609;SDS011;292;48.800;9.216;2023-01-08T00:56:37;14.80;;;7.55;;
609;SDS011;292;48.800;9.216;2023-01-08T00:59:04;15.38;;;9.05;;
609;SDS011;292;48.800;9.216;2023-01-08T01:01:31;14.65;;;8.73;;
609;SDS011;292;48.800;9.216;2023-01-08T01:03:58;15.57;;;8.60;;
609;SDS011;292;48.800;9.216;2023-01-08T01:06:25;14.00;;;7.82;;
609;SDS011;292;48.800;9.216;2023-01-08T01:08:52;16.25;;;8.65;;
609;SDS011;292;48.800;9.216;2023-01-08T01:11:19;19.02;;;9.32;;
609;SDS011;292;48.800;9.216;2023-01-08T01:13:49;17.90;;;9.35;;
609;SDS011;292;48.800;9.216;2023-01-08T01:16:17;17.85;;;9.32;;
609;SDS011;292;48.800;9.216;2023-01-08T01:18:44;15.77;;;8.77;;
609;SDS011;292;48.800;9.216;2023-01-08T01:21:11;18.75;;;8.75;;
609;SDS011;292;48.800;9.216;2023-01-08T01:23:43;16.05;;;9.32;;
609;SDS011;292;48.800;9.216;2023-01-08T01:26:14;15.35;;;8.85;;
609;SDS011;292;48.800;9.216;2023-01-08T01:28:42;15.05;;;8.45;;
609;SDS011;292;48.800;9.216;2023-01-08T01:31:13;15.68;;;8.43;;
609;SDS011;292;48.800;9.216;2023-01-08T01:33:40;21.10;;;9.60;;
609;SDS011;292;48.800;9.216;2023-01-08T01:36:08;15.50;;;8.60;;
609;SDS011;292;48.800;9.216;2023-01-08T01:38:36;15.75;;;8.50;;
609;SDS011;292;48.800;9.216;2023-01-08T01:41:03;17.70;;;8.55;;
609;SDS011;292;48.800;9.216;2023-01-08T01:43:34;17.02;;;8.98;;
609;SDS011;292;48.800;9.216;2023-01-08T01:46:03;17.00;;;8.57;;
609;SDS011;292;48.800;9.216;2023-01-08T01:48:33;19.40;;;9.07;;
609;SDS011;292;48.800;9.216;2023-01-08T01:51:00;16.33;;;8.07;;
609;SDS011;292;48.800;9.216;2023-01-08T01:53:28;15.98;;;8.15;;
609;SDS011;292;48.800;9.216;2023-01-08T01:55:58;17.08;;;8.10;;
609;SDS011;292;48.800;9.216;2023-01-08T01:58:26;16.67;;;8.20;;
609;SDS011;292;48.800;9.216;2023-01-08T02:00:55;14.40;;;7.75;;
609;SDS011;292;48.800;9.216;2023-01-08T02:03:24;16.65;;;8.68;;
609;SDS011;292;48.800;9.216;2023-01-08T02:05:57;15.05;;;7.65;;
609;SDS011;292;48.800;9.216;2023-01-08T02:08:31;19.73;;;8.50;;
609;SDS011;292;48.800;9.216;2023-01-08T02:11:08;17.23;;;8.40;;
609;SDS011;292;48.800;9.216;2023-01-08T02:13:38;15.57;;;8.15;;
609;SDS011;292;48.800;9.216;2023-01-08T02:16:10;12.40;;;7.22;;
609;SDS011;292;48.800;9.216;2023-01-08T02:18:43;13.75;;;7.15;;
609;SDS011;292;48.800;9.216;2023-01-08T02:21:16;15.88;;;8.40;;
609;SDS011;292;48.800;9.216;2023-01-08T02:23:47;20.02;;;8.60;;
609;SDS011;292;48.800;9.216;2023-01-08T02:26:26;17.85;;;8.40;;
609;SDS011;292;48.800;9.216;2023-01-08T02:28:57;14.98;;;7.88;;
609;SDS011;292;48.800;9.216;2023-01-08T02:31:27;18.98;;;8.30;;
609;SDS011;292;48.800;9.216;2023-01-08T02:33:55;19.05;;;8.43;;
609;SDS011;292;48.800;9.216;2023-01-08T02:36:25;15.57;;;8.07;;
609;SDS011;292;48.800;9.216;2023-01-08T02:39:01;16.00;;;9.00;;
609;SDS011;292;48.800;9.216;2023-01-08T02:41:50;17.90;;;8.60;;
609;SDS011;292;48.800;9.216;2023-01-08T02:44:24;17.05;;;7.82;;
609;SDS011;292;48.800;9.216;2023-01-08T02:46:59;17.17;;;8.30;;
609;SDS011;292;48.800;9.216;2023-01-08T02:49:31;15.50;;;8.23;;
609;SDS011;292;48.800;9.216;2023-01-08T02:52:03;17.02;;;8.50;;
609;SDS011;292;48.800;9.216;2023-01-08T02:54:33;16.60;;;8.15;;
609;SDS011;292;48.800;9.216;2023-01-08T02:57:04;17.75;;;8.80;;
609;SDS011;292;48.800;9.216;2023-01-08T02:59:33;15.20;;;8.60;;
609;SDS011;292;48.800;9.216;2023-01-08T03:02:02;17.38;;;8.63;;
609;SDS011;292;48.800;9.216;2023-01-08T03:04:31;13.38;;;7.22;;
609;SDS011;292;48.800;9.216;2023-01-08T03:07:01;19.95;;;8.27;;
609;SDS011;292;48.800;9.216;2023-01-08T03:09:29;19.63;;;9.35;;
609;SDS011;292;48.800;9.216;2023-01-08T03:11:57;17.48;;;8.30;;
609;SDS011;292;48.800;9.216;2023-01-08T03:14:31;18.70;;;7.80;;
609;SDS011;292;48.800;9.216;2023-01-08T03:17:05;15.02;;;7.90;;
609;SDS011;292;48.800;9.216;2023-01-08T03:19:37;15.77;;;7.97;;
609;SDS011;292;48.800;9.216;2023-01-08T03:22:08;16.10;;;8.20;;
609;SDS011;292;48.800;9.216;2023-01-08T03:24:37;14.30;;;7.47;;
609;SDS011;292;48.800;9.216;2023-01-08T03:27:07;14.07;;;7.35;;
609;SDS011;292;48.800;9.216;2023-01-08T03:29:39;18.20;;;7.55;;
609;SDS011;292;48.800;9.216;2023-01-08T03:32:07;17.98;;;8.45;;
609;SDS011;292;48.800;9.216;2023-01-08T03:34:39;19.13;;;8.45;;
609;SDS011;292;48.800;9.216;2023-01-08T03:37:09;18.35;;;8.75;;
609;SDS011;292;48.800;9.216;2023-01-08T03:39:39;16.00;;;9.05;;
609;SDS011;292;48.800;9.216;2023-01-08T03:42:10;13.75;;;7.75;;
609;SDS011;292;48.800;9.216;2023-01-08T03:44:40;13.00;;;7.57;;
609;SDS011;292;48.800;9.216;2023-01-08T03:47:08;13.90;;;7.60;;
609;SDS011;292;48.800;9.216;2023-01-08T03:49:36;18.13;;;8.95;;
609;SDS011;292;48.800;9.216;2023-01-08T03:52:04;13.43;;;7.28;;
609;SDS011;292;48.800;9.216;2023-01-08T03:54:32;13.75;;;8.13;;
609;SDS011;292;48.800;9.216;2023-01-08T03:57:18;16.33;;;9.05;;
609;SDS011;292;48.800;9.216;2023-01-08T03:59:45;15.40;;;7.57;;
609;SDS011;292;48.800;9.216;2023-01-08T04:02:12;14.43;;;7.38;;
609;SDS011;292;48.800;9.216;2023-01-08T04:04:39;16.75;;;8.13;;
609;SDS011;292;48.800;9.216;2023-01-08T04:07:08;13.52;;;7.50;;
609;SDS011;292;48.800;9.216;2023-01-08T04:09:36;17.98;;;7.80;;
609;SDS011;292;48.800;9.216;2023-01-08T04:12:03;15.68;;;7.80;;
609;SDS011;292;48.800;9.216;2023-01-08T04:14:32;15.13;;;7.50;;
609;SDS011;292;48.800;9.216;2023-01-08T04:16:59;25.55;;;8.10;;
609;SDS011;292;48.800;9.216;2023-01-08T04:19:26;17.33;;;8.38;;
609;SDS011;292;48.800;9.216;2023-01-08T04:21:52;14.75;;;7.35;;
609;SDS011;292;48.800;9.216;2023-01-08T04:24:19;14.30;;;7.38;;
609;SDS011;292;48.800;9.216;2023-01-08T04:26:46;14.25;;;6.78;;
609;SDS011;292;48.800;9.216;2023-01-08T04:29:14;16.80;;;7.82;;
609;SDS011;292;48.800;9.216;2023-01-08T04:31:42;16.48;;;8.25;;
609;SDS011;292;48.800;9.216;2023-01-08T04:34:09;13.15;;;6.60;;
609;SDS011;292;48.800;9.216;2023-01-08T04:36:36;12.80;;;6.28;;
609;SDS011;292;48.800;9.216;2023-01-08T04:39:03;11.50;;;6.60;;
609;SDS011;292;48.800;9.216;2023-01-08T04:41:30;11.80;;;6.63;;
609;SDS011;292;48.800;9.216;2023-01-08T04:43:57;14.18;;;6.97;;
609;SDS011;292;48.800;9.216;2023-01-08T04:46:24;10.48;;;6.25;;
609;SDS011;292;48.800;9.216;2023-01-08T04:48:52;11.80;;;6.55;;
609;SDS011;292;48.800;9.216;2023-01-08T04:51:19;10.75;;;5.95;;
609;SDS011;292;48.800;9.216;2023-01-08T04:53:47;11.85;;;7.00;;
609;SDS011;292;48.800;9.216;2023-01-08T04:56:14;12.80;;;6.28;;
609;SDS011;292;48.800;9.216;2023-01-08T04:58:41;16.40;;;7.10;;
609;SDS011;292;48.800;9.216;2023-01-08T05:01:09;11.80;;;6.18;;
609;SDS011;292;48.800;9.216;2023-01-08T05:03:43;13.35;;;6.30;;
609;SDS011;292;48.800;9.216;2023-01-08T05:06:12;17.75;;;6.57;;
609;SDS011;292;48.800;9.216;2023-01-08T05:08:39;11.90;;;5.60;;
609;SDS011;292;48.800;9.216;2023-01-08T05:11:06;10.43;;;5.30;;
609;SDS011;292;48.800;9.216;2023-01-08T05:13:33;11.15;;;4.30;;
609;SDS011;292;48.800;9.216;2023-01-08T05:16:00;7.10;;;3.70;;
609;SDS011;292;48.800;9.216;2023-01-08T05:18:28;10.90;;;4.18;;
609;SDS011;292;48.800;9.216;2023-01-08T05:20:58;4.72;;;3.00;;
609;SDS011;292;48.800;9.216;2023-01-08T05:23:27;8.93;;;3.10;;
609;SDS011;292;48.800;9.216;2023-01-08T05:25:55;4.05;;;2.20;;
609;SDS011;292;48.800;9.216;2023-01-08T05:28:23;4.15;;;2.15;;
609;SDS011;292;48.800;9.216;2023-01-08T05:30:50;3.88;;;1.70;;
609;SDS011;292;48.800;9.216;2023-01-08T05:33:17;3.10;;;1.90;;
609;SDS011;292;48.800;9.216;2023-01-08T05:35:44;2.45;;;1.70;;
609;SDS011;292;48.800;9.216;2023-01-08T05:38:11;3.40;;;2.00;;
609;SDS011;292;48.800;9.216;2023-01-08T05:40:40;2.22;;;1.52;;
609;SDS011;292;48.800;9.216;2023-01-08T05:43:07;5.00;;;1.50;;
609;SDS011;292;48.800;9.216;2023-01-08T05:45:34;3.88;;;1.73;;
609;SDS011;292;48.800;9.216;2023-01-08T05:48:03;2.77;;;1.23;;
609;SDS011;292;48.800;9.216;2023-01-08T05:50:32;2.33;;;1.55;;
609;SDS011;292;48.800;9.216;2023-01-08T05:52:59;1.80;;;1.20;;
609;SDS011;292;48.800;9.216;2023-01-08T05:55:26;1.87;;;1.50;;
609;SDS011;292;48.800;9.216;2023-01-08T05:57:55;2.53;;;1.13;;
609;SDS011;292;48.800;9.216;2023-01-08T06:00:25;2.57;;;1.40;;
609;SDS011;292;48.800;9.216;2023-01-08T06:02:52;2.20;;;1.37;;
609;SDS011;292;48.800;9.216;2023-01-08T06:05:19;1.10;;;1.00;;
609;SDS011;292;48.800;9.216;2023-01-08T06:07:46;1.33;;;1.03;;
609;SDS011;292;48.800;9.216;2023-01-08T06:10:13;1.33;;;1.20;;
609;SDS011;292;48.800;9.216;2023-01-08T06:12:40;5.33;;;1.20;;
609;SDS011;292;48.800;9.216;2023-01-08T06:15:10;1.47;;;0.97;;
609;SDS011;292;48.800;9.216;2023-01-08T06:17:37;2.20;;;1.30;;
609;SDS011;292;48.800;9.216;2023-01-08T06:20:05;2.57;;;1.37;;
609;SDS011;292;48.800;9.216;2023-01-08T06:22:33;2.37;;;1.13;;
609;SDS011;292;48.800;9.216;2023-01-08T06:25:00;1.57;;;1.00;;
609;SDS011;292;48.800;9.216;2023-01-08T06:27:27;1.60;;;0.90;;
609;SDS011;292;48.800;9.216;2023-01-08T06:29:54;1.70;;;0.93;;
609;SDS011;292;48.800;9.216;2023-01-08T06:32:23;2.73;;;1.10;;
609;SDS011;292;48.800;9.216;2023-01-08T06:34:50;1.87;;;1.23;;
609;SDS011;292;48.800;9.216;2023-01-08T06:37:17;5.10;;;1.43;;
609;SDS011;292;48.800;9.216;2023-01-08T06:39:44;2.47;;;1.10;;
609;SDS011;292;48.800;9.216;2023-01-08T06:42:11;1.80;;;1.30;;
609;SDS011;292;48.800;9.216;2023-01-08T06:44:38;1.10;;;0.90;;
609;SDS011;292;48.800;9.216;2023-01-08T06:47:05;2.27;;;1.10;;
609;SDS011;292;48.800;9.216;2023-01-08T06:49:33;2.30;;;1.10;;
609;SDS011;292;48.800;9.216;2023-01-08T06:52:00;0.97;;;0.83;;
609;SDS011;292;48.800;9.216;2023-01-08T06:54:27;1.23;;;1.00;;
609;SDS011;292;48.800;9.216;2023-01-08T06:56:53;1.60;;;1.20;;
609;SDS011;292;48.800;9.216;2023-01-08T06:59:20;5.70;;;1.10;;
609;SDS011;292;48.800;9.216;2023-01-08T07:01:47;1.23;;;0.90;;
609;SDS011;292;48.800;9.216;2023-01-08T07:04:15;4.30;;;1.03;;
609;SDS011;292;48.800;9.216;2023-01-08T07:06:44;0.90;;;0.80;;
609;SDS011;292;48.800;9.216;2023-01-08T07:09:11;1.77;;;1.00;;
609;SDS011;292;48.800;9.216;2023-01-08T07:11:38;1.33;;;0.77;;
609;SDS011;292;48.800;9.216;2023-01-08T07:14:05;1.57;;;1.00;;
609;SDS011;292;48.800;9.216;2023-01-08T07:16:32;1.00;;;0.80;;
609;SDS011;292;48.800;9.216;2023-01-08T07:18:59;3.03;;;1.07;;
609;SDS011;292;48.800;9.216;2023-01-08T07:21:26;1.50;;;0.80;;
609;SDS011;292;48.800;9.216;2023-01-08T07:23:56;1.20;;;0.77;;
609;SDS011;292;48.800;9.216;2023-01-08T07:26:24;1.17;;;0.83;;
609;SDS011;292;48.800;9.216;2023-01-08T07:28:51;0.97;;;0.77;;
609;SDS011;292;48.800;9.216;2023-01-08T07:31:18;1.17;;;0.70;;
609;SDS011;292;48.800;9.216;2023-01-08T07:33:45;0.70;;;0.70;;
609;SDS011;292;48.800;9.216;2023-01-08T07:36:12;0.87;;;0.80;;
609;SDS011;292;48.800;9.216;2023-01-08T07:38:40;0.93;;;0.70;;
609;SDS011;292;48.800;9.216;2023-01-08T07:41:09;2.70;;;1.00;;
609;SDS011;292;48.800;9.216;2023-01-08T07:43:37;5.03;;;1.13;;
609;SDS011;292;48.800;9.216;2023-01-08T07:46:04;1.13;;;0.83;;
609;SDS011;292;48.800;9.216;2023-01-08T07:48:31;2.33;;;1.00;;
609;SDS011;292;48.800;9.216;2023-01-08T07:51:01;1.23;;;0.80;;
609;SDS011;292;48.800;9.216;2023-01-08T07:53:29;0.97;;;0.87;;
609;SDS011;292;48.800;9.216;2023-01-08T07:55:59;1.00;;;0.80;;
609;SDS011;292;48.800;9.216;2023-01-08T07:58:28;1.23;;;0.80;;
609;SDS011;292;48.800;9.216;2023-01-08T08:00:56;1.23;;;0.97;;
609;SDS011;292;48.800;9.216;2023-01-08T08:03:23;5.57;;;1.40;;
609;SDS011;292;48.800;9.216;2023-01-08T08:05:50;1.10;;;0.80;;
609;SDS011;292;48.800;9.216;2023-01-08T08:08:18;1.97;;;1.07;;
609;SDS011;292;48.800;9.216;2023-01-08T08:10:45;2.43;;;0.90;;
609;SDS011;292;48.800;9.216;2023-01-08T08:13:12;1.07;;;0.83;;
609;SDS011;292;48.800;9.216;2023-01-08T08:15:40;1.30;;;0.80;;
609;SDS011;292;48.800;9.216;2023-01-08T08:18:07;2.23;;;1.10;;
609;SDS011;292;48.800;9.216;2023-01-08T08:20:35;7.73;;;1.10;;
609;SDS011;292;48.800;9.216;2023-01-08T08:23:03;1.23;;;0.90;;
609;SDS011;292;48.800;9.216;2023-01-08T08:25:31;6.20;;;0.90;;
609;SDS011;292;48.800;9.216;2023-01-08T08:27:58;1.43;;;0.97;;
609;SDS011;292;48.800;9.216;2023-01-08T08:30:27;1.07;;;0.63;;
609;SDS011;292;48.800;9.216;2023-01-08T08:32:57;0.90;;;0.80;;
609;SDS011;292;48.800;9.216;2023-01-08T08:35:25;2.50;;;1.17;;
609;SDS011;292;48.800;9.216;2023-01-08T08:37:52;1.83;;;0.93;;
609;SDS011;292;48.800;9.216;2023-01-08T08:40:19;1.40;;;1.00;;
609;SDS011;292;48.800;9.216;2023-01-08T08:42:46;1.65;;;1.00;;
609;SDS011;292;48.800;9.216;2023-01-08T08:45:14;2.13;;;1.10;;
609;SDS011;292;48.800;9.216;2023-01-08T08:47:41;0.90;;;0.90;;
609;SDS011;292;48.800;9.216;2023-01-08T08:50:10;2.77;;;0.90;;
609;SDS011;292;48.800;9.216;2023-01-08T08:52:37;2.50;;;1.10;;
609;SDS011;292;48.800;9.216;2023-01-08T08:55:04;2.83;;;1.20;;
609;SDS011;292;48.800;9.216;2023-01-08T08:57:32;1.70;;;1.17;;
609;SDS011;292;48.800;9.216;2023-01-08T08:59:59;1.55;;;0.90;;
609;SDS011;292;48.800;9.216;2023-01-08T09:02:26;1.03;;;1.00;;
609;SDS011;292;48.800;9.216;2023-01-08T09:04:53;1.60;;;0.93;;
609;SDS011;292;48.800;9.216;2023-01-08T09:07:21;1.00;;;0.87;;
609;SDS011;292;48.800;9.216;2023-01-08T09:09:48;1.40;;;0.90;;
609;SDS011;292;48.800;9.216;2023-01-08T09:12:15;2.33;;;1.20;;
609;SDS011;292;48.800;9.216;2023-01-08T09:14:42;3.37;;;1.67;;
609;SDS011;292;48.800;9.216;2023-01-08T09:17:09;3.00;;;1.10;;
609;SDS011;292;48.800;9.216;2023-01-08T09:19:36;7.53;;;1.67;;
609;SDS011;292;48.800;9.216;2023-01-08T09:22:03;4.63;;;1.07;;
609;SDS011;292;48.800;9.216;2023-01-08T09:24:32;1.67;;;0.80;;
609;SDS011;292;48.800;9.216;2023-01-08T09:26:59;1.97;;;1.03;;
609;SDS011;292;48.800;9.216;2023-01-08T09:29:26;1.47;;;0.83;;
609;SDS011;292;48.800;9.216;2023-01-08T09:31:53;3.83;;;1.63;;
609;SDS011;292;48.800;9.216;2023-01-08T09:34:21;2.27;;;1.13;;
609;SDS011;292;48.800;9.216;2023-01-08T09:36:48;3.73;;;1.40;;
609;SDS011;292;48.800;9.216;2023-01-08T09:39:17;1.40;;;0.97;;
609;SDS011;292;48.800;9.216;2023-01-08T09:41:46;2.83;;;1.20;;
609;SDS011;292;48.800;9.216;2023-01-08T09:44:15;2.83;;;1.20;;
609;SDS011;292;48.800;9.216;2023-01-08T09:46:43;1.37;;;0.90;;
609;SDS011;292;48.800;9.216;2023-01-08T09:49:13;1.80;;;1.30;;
609;SDS011;292;48.800;9.216;2023-01-08T09:51:44;4.13;;;1.10;;
609;SDS011;292;48.800;9.216;2023-01-08T09:54:12;2.50;;;1.23;;
609;SDS011;292;48.800;9.216;2023-01-08T09:56:41;2.47;;;1.10;;
609;SDS011;292;48.800;9.216;2023-01-08T09:59:11;0.97;;;0.83;;
609;SDS011;292;48.800;9.216;2023-01-08T10:01:42;1.77;;;1.10;;
609;SDS011;292;48.800;9.216;2023-01-08T10:04:12;7.33;;;1.37;;
609;SDS011;292;48.800;9.216;2023-01-08T10:06:42;3.83;;;1.97;;
609;SDS011;292;48.800;9.216;2023-01-08T10:09:15;3.63;;;1.87;;
609;SDS011;292;48.800;9.216;2023-01-08T10:11:45;2.73;;;1.53;;
609;SDS011;292;48.800;9.216;2023-01-08T10:14:18;2.40;;;1.10;;
609;SDS011;292;48.800;9.216;2023-01-08T10:16:48;2.80;;;1.40;;
609;SDS011;292;48.800;9.216;2023-01-08T10:19:19;4.70;;;1.57;;
609;SDS011;292;48.800;9.216;2023-01-08T10:21:46;1.50;;;1.10;;
609;SDS011;292;48.800;9.216;2023-01-08T10:24:13;1.53;;;0.93;;
609;SDS011;292;48.800;9.216;2023-01-08T10:26:40;2.70;;;1.80;;
609;SDS011;292;48.800;9.216;2023-01-08T10:29:08;2.93;;;1.67;;
609;SDS011;292;48.800;9.216;2023-01-08T10:31:43;3.30;;;2.00;;
609;SDS011;292;48.800;9.216;2023-01-08T10:34:17;1.90;;;1.20;;
609;SDS011;292;48.800;9.216;2023-01-08T10:36:50;1.93;;;1.20;;
609;SDS011;292;48.800;9.216;2023-01-08T10:39:20;5.57;;;2.30;;
609;SDS011;292;48.800;9.216;2023-01-08T10:41:49;2.20;;;1.60;;
609;SDS011;292;48.800;9.216;2023-01-08T10:44:18;4.37;;;2.00;;
609;SDS011;292;48.800;9.216;2023-01-08T10:46:51;1.93;;;1.40;;
609;SDS011;292;48.800;9.216;2023-01-08T10:49:21;3.83;;;2.43;;
609;SDS011;292;48.800;9.216;2023-01-08T10:51:53;3.70;;;2.30;;
609;SDS011;292;48.800;9.216;2023-01-08T10:54:28;4.83;;;2.47;;
609;SDS011;292;48.800;9.216;2023-01-08T10:56:58;2.67;;;1.23;;
609;SDS011;292;48.800;9.216;2023-01-08T10:59:26;6.20;;;2.30;;
609;SDS011;292;48.800;9.216;2023-01-08T11:01:54;4.47;;;2.30;;
609;SDS011;292;48.800;9.216;2023-01-08T11:04:26;2.50;;;1.60;;
609;SDS011;292;48.800;9.216;2023-01-08T11:06:56;1.63;;;1.57;;
609;SDS011;292;48.800;9.216;2023-01-08T11:09:27;1.67;;;1.27;;
609;SDS011;292;48.800;9.216;2023-01-08T11:11:58;4.37;;;2.00;;
609;SDS011;292;48.800;9.216;2023-01-08T11:14:29;3.93;;;1.90;;
609;SDS011;292;48.800;9.216;2023-01-08T11:17:00;2.07;;;1.30;;
609;SDS011;292;48.800;9.216;2023-01-08T11:19:35;3.70;;;2.37;;
609;SDS011;292;48.800;9.216;2023-01-08T11:22:04;2.10;;;1.50;;
609;SDS011;292;48.800;9.216;2023-01-08T11:24:42;2.20;;;1.33;;
609;SDS011;292;48.800;9.216;2023-01-08T11:27:12;2.90;;;1.60;;
609;SDS011;292;48.800;9.216;2023-01-08T11:29:44;2.00;;;1.20;;
609;SDS011;292;48.800;9.216;2023-01-08T11:32:24;2.67;;;1.20;;
609;SDS011;292;48.800;9.216;2023-01-08T11:35:03;2.83;;;2.00;;
609;SDS011;292;48.800;9.216;2023-01-08T11:37:37;2.40;;;1.63;;
609;SDS011;292;48.800;9.216;2023-01-08T11:40:12;3.13;;;1.20;;
609;SDS011;292;48.800;9.216;2023-01-08T11:42:45;0.83;;;0.70;;
609;SDS011;292;48.800;9.216;2023-01-08T11:45:23;1.00;;;0.80;;
609;SDS011;292;48.800;9.216;2023-01-08T11:48:03;1.50;;;1.00;;
609;SDS011;292;48.800;9.216;2023-01-08T11:50:55;1.80;;;0.70;;
609;SDS011;292;48.800;9.216;2023-01-08T11:53:42;1.00;;;0.90;;
609;SDS011;292;48.800;9.216;2023-01-08T11:56:16;3.07;;;1.13;;
609;SDS011;292;48.800;9.216;2023-01-08T11:58:58;3.33;;;1.13;;
609;SDS011;292;48.800;9.216;2023-01-08T12:01:43;4.30;;;1.77;;
609;SDS011;292;48.800;9.216;2023-01-08T12:04:36;1.00;;;0.90;;
609;SDS011;292;48.800;9.216;2023-01-08T12:07:27;1.30;;;1.10;;
609;SDS011;292;48.800;9.216;2023-01-08T12:10:03;2.67;;;1.30;;
609;SDS011;292;48.800;9.216;2023-01-08T12:12:40;1.20;;;0.87;;
609;SDS011;292;48.800;9.216;2023-01-08T12:15:18;3.20;;;1.77;;
609;SDS011;292;48.800;9.216;2023-01-08T12:18:06;4.00;;;1.63;;
609;SDS011;292;48.800;9.216;2023-01-08T12:20:47;4.00;;;1.53;;
609;SDS011;292;48.800;9.216;2023-01-08T12:23:25;3.13;;;1.53;;
609;SDS011;292;48.800;9.216;2023-01-08T12:26:06;2.80;;;1.67;;
609;SDS011;292;48.800;9.216;2023-01-08T12:28:52;1.57;;;0.93;;
609;SDS011;292;48.800;9.216;2023-01-08T12:31:45;3.27;;;2.10;;
609;SDS011;292;48.800;9.216;2023-01-08T12:34:40;4.73;;;1.73;;
609;SDS011;292;48.800;9.216;2023-01-08T12:37:17;1.97;;;0.90;;
609;SDS011;292;48.800;9.216;2023-01-08T12:39:50;1.20;;;1.10;;
609;SDS011;292;48.800;9.216;2023-01-08T12:42:25;2.80;;;1.40;;
609;SDS011;292;48.800;9.216;2023-01-08T12:44:55;1.90;;;1.13;;
609;SDS011;292;48.800;9.216;2023-01-08T12:47:25;4.70;;;1.87;;
609;SDS011;292;48.800;9.216;2023-01-08T12:50:00;3.30;;;1.10;;
609;SDS011;292;48.800;9.216;2023-01-08T12:52:44;0.90;;;0.80;;
609;SDS011;292;48.800;9.216;2023-01-08T12:55:34;2.30;;;1.10;;
609;SDS011;292;48.800;9.216;2023-01-08T12:58:15;4.70;;;2.57;;
609;SDS011;292;48.800;9.216;2023-01-08T13:00:55;1.13;;;1.00;;
609;SDS011;292;48.800;9.216;2023-01-08T13:03:28;0.80;;;0.70;;
609;SDS011;292;48.800;9.216;2023-01-08T13:06:06;2.70;;;1.03;;
609;SDS011;292;48.800;9.216;2023-01-08T13:08:36;1.40;;;1.20;;
609;SDS011;292;48.800;9.216;2023-01-08T13:11:06;1.27;;;0.87;;
609;SDS011;292;48.800;9.216;2023-01-08T13:13:35;0.80;;;0.67;;
609;SDS011;292;48.800;9.216;2023-01-08T13:16:17;5.00;;;2.50;;
609;SDS011;292;48.800;9.216;2023-01-08T13:18:52;6.03;;;3.30;;
609;SDS011;292;48.800;9.216;2023-01-08T13:27:21;1.30;;;1.10;;
609;SDS011;292;48.800;9.216;2023-01-08T13:29:53;2.43;;;1.57;;
609;SDS011;292;48.800;9.216;2023-01-08T13:32:23;2.80;;;1.10;;
609;SDS011;292;48.800;9.216;2023-01-08T13:35:02;2.00;;;1.40;;
609;SDS011;292;48.800;9.216;2023-01-08T13:37:45;2.50;;;1.50;;
609;SDS011;292;48.800;9.216;2023-01-08T13:40:37;1.53;;;1.07;;
609;SDS011;292;48.800;9.216;2023-01-08T13:43:14;1.30;;;1.10;;
609;SDS011;292;48.800;9.216;2023-01-08T13:45:45;1.13;;;0.70;;
609;SDS011;292;48.800;9.216;2023-01-08T13:48:20;2.20;;;1.30;;
609;SDS011;292;48.800;9.216;2023-01-08T13:50:48;3.17;;;1.53;;
609;SDS011;292;48.800;9.216;2023-01-08T13:53:16;2.20;;;1.20;;
609;SDS011;292;48.800;9.216;2023-01-08T13:55:48;1.50;;;0.87;;
609;SDS011;292;48.800;9.216;2023-01-08T13:58:23;1.07;;;1.00;;
609;SDS011;292;48.800;9.216;2023-01-08T14:00:52;1.60;;;1.17;;
609;SDS011;292;48.800;9.216;2023-01-08T14:03:21;2.00;;;1.03;;
609;SDS011;292;48.800;9.216;2023-01-08T14:05:52;1.47;;;1.10;;
609;SDS011;292;48.800;9.216;2023-01-08T14:08:32;1.20;;;0.83;;
609;SDS011;292;48.800;9.216;2023-01-08T14:11:01;3.90;;;1.43;;
609;SDS011;292;48.800;9.216;2023-01-08T14:13:30;2.63;;;1.37;;
609;SDS011;292;48.800;9.216;2023-01-08T14:16:02;3.67;;;1.70;;
609;SDS011;292;48.800;9.216;2023-01-08T14:18:38;1.80;;;1.10;;
609;SDS011;292;48.800;9.216;2023-01-08T14:21:06;2.70;;;1.67;;
609;SDS011;292;48.800;9.216;2023-01-08T14:23:35;3.73;;;1.10;;
609;SDS011;292;48.800;9.216;2023-01-08T14:26:07;2.17;;;1.37;;
609;SDS011;292;48.800;9.216;2023-01-08T14:28:49;2.93;;;1.60;;
609;SDS011;292;48.800;9.216;2023-01-08T14:31:18;1.13;;;0.90;;
609;SDS011;292;48.800;9.216;2023-01-08T14:33:47;1.60;;;1.30;;
609;SDS011;292;48.800;9.216;2023-01-08T14:36:16;1.57;;;0.87;;
609;SDS011;292;48.800;9.216;2023-01-08T14:38:44;1.97;;;1.30;;
609;SDS011;292;48.800;9.216;2023-01-08T14:41:16;3.13;;;1.60;;
609;SDS011;292;48.800;9.216;2023-01-08T14:44:11;1.50;;;1.10;;
609;SDS011;292;48.800;9.216;2023-01-08T14:46:41;1.53;;;1.03;;
609;SDS011;292;48.800;9.216;2023-01-08T14:49:12;2.17;;;1.33;;
609;SDS011;292;48.800;9.216;2023-01-08T14:51:48;2.77;;;1.00;;
609;SDS011;292;48.800;9.216;2023-01-08T14:54:16;0.50;;;0.50;;
609;SDS011;292;48.800;9.216;2023-01-08T14:56:51;0.80;;;0.80;;
609;SDS011;292;48.800;9.216;2023-01-08T14:59:23;1.67;;;1.00;;
609;SDS011;292;48.800;9.216;2023-01-08T15:01:53;1.07;;;0.80;;
609;SDS011;292;48.800;9.216;2023-01-08T15:04:23;2.13;;;1.30;;
609;SDS011;292;48.800;9.216;2023-01-08T15:07:05;3.93;;;1.00;;
609;SDS011;292;48.800;9.216;2023-01-08T15:09:34;0.87;;;0.67;;
609;SDS011;292;48.800;9.216;2023-01-08T15:12:05;1.17;;;0.80;;
609;SDS011;292;48.800;9.216;2023-01-08T15:14:47;2.90;;;0.80;;
609;SDS011;292;48.800;9.216;2023-01-08T15:17:15;2.83;;;1.47;;
609;SDS011;292;48.800;9.216;2023-01-08T15:19:45;5.90;;;2.87;;
609;SDS011;292;48.800;9.216;2023-01-08T15:22:17;4.77;;;2.80;;
609;SDS011;292;48.800;9.216;2023-01-08T15:24:50;1.60;;;1.03;;
609;SDS011;292;48.800;9.216;2023-01-08T15:27:24;1.47;;;0.90;;
609;SDS011;292;48.800;9.216;2023-01-08T15:29:52;0.93;;;0.50;;
609;SDS011;292;48.800;9.216;2023-01-08T15:32:26;3.23;;;0.90;;
609;SDS011;292;48.800;9.216;2023-01-08T15:34:55;4.17;;;0.70;;
609;SDS011;292;48.800;9.216;2023-01-08T15:37:23;1.60;;;0.90;;
609;SDS011;292;48.800;9.216;2023-01-08T15:39:49;3.70;;;0.97;;
609;SDS011;292;48.800;9.216;2023-01-08T15:42:17;1.17;;;0.80;;
609;SDS011;292;48.800;9.216;2023-01-08T15:45:01;5.57;;;2.93;;
609;SDS011;292;48.800;9.216;2023-01-08T15:47:30;2.00;;;1.30;;
609;SDS011;292;48.800;9.216;2023-01-08T15:49:59;1.70;;;1.17;;
609;SDS011;292;48.800;9.216;2023-01-08T15:52:27;5.70;;;2.60;;
609;SDS011;292;48.800;9.216;2023-01-08T15:54:55;2.37;;;1.80;;
609;SDS011;292;48.800;9.216;2023-01-08T15:57:23;5.03;;;1.50;;
609;SDS011;292;48.800;9.216;2023-01-08T15:59:50;3.20;;;1.90;;
609;SDS011;292;48.800;9.216;2023-01-08T16:02:19;4.40;;;2.20;;
609;SDS011;292;48.800;9.216;2023-01-08T16:04:49;3.47;;;2.00;;